createdAt,value
2022-07-29T00:03:02.927Z,1004.1
2022-07-29T00:06:03.964Z,1004.1
2022-07-29T00:09:04.978Z,1004.1
2022-07-29T00:13:25.873Z,1004.1
2022-07-29T00:15:07.021Z,1004.1
2022-07-29T00:18:08.051Z,1004
2022-07-29T00:21:09.057Z,1003.9
2022-07-29T00:27:11.116Z,1003.8
2022-07-29T00:30:12.142Z,1003.7
2022-07-29T00:36:14.173Z,1003.6
2022-07-29T00:39:15.193Z,1003.6
2022-07-29T00:43:36.126Z,1003.5
2022-07-29T00:45:17.259Z,1003.4
2022-07-29T00:48:18.267Z,1003.4
2022-07-29T00:54:20.313Z,1003.4
2022-07-29T01:00:22.369Z,1003.3
2022-07-29T01:03:23.379Z,1003.3
2022-07-29T01:06:24.410Z,1003.3
2022-07-29T01:13:46.375Z,1003.2
2022-07-29T01:15:27.472Z,1003.3
2022-07-29T01:18:28.504Z,1003.3
2022-07-29T01:21:29.527Z,1003.3
2022-07-29T01:24:30.547Z,1003.3
2022-07-29T01:30:32.597Z,1003.3
2022-07-29T01:33:33.606Z,1003.2
2022-07-29T01:39:35.662Z,1003.2
2022-07-29T01:42:36.685Z,1003.2
2022-07-29T01:43:56.603Z,1003.2
2022-07-29T01:48:38.732Z,1003.2
2022-07-29T01:51:39.739Z,1003.2
2022-07-29T01:54:40.771Z,1003.2
2022-07-29T01:57:41.792Z,1003.2
2022-07-29T02:00:42.817Z,1003.1
2022-07-29T02:06:44.864Z,1003
2022-07-29T02:09:45.877Z,1003
2022-07-29T02:14:06.850Z,1003
2022-07-29T02:15:47.923Z,1003.1
2022-07-29T02:24:50.996Z,1002.9
2022-07-29T02:27:52.030Z,1002.9
2022-07-29T02:33:54.061Z,1003
2022-07-29T02:36:55.092Z,1003
2022-07-29T02:42:57.127Z,1002.9
2022-07-29T02:44:17.099Z,1002.9
2022-07-29T02:45:58.154Z,1002.9
2022-07-29T02:52:00.211Z,1002.9
2022-07-29T02:58:02.242Z,1002.8
2022-07-29T03:01:03.260Z,1002.9
2022-07-29T03:04:04.283Z,1002.8
2022-07-29T03:07:05.323Z,1002.8
2022-07-29T03:10:06.343Z,1002.9
2022-07-29T03:13:07.366Z,1002.8
2022-07-29T03:14:27.338Z,1002.9
2022-07-29T03:16:08.387Z,1002.8
2022-07-29T03:19:09.416Z,1002.8
2022-07-29T03:22:10.431Z,1002.8
2022-07-29T03:31:13.506Z,1002.8
2022-07-29T03:34:14.509Z,1002.8
2022-07-29T03:37:15.533Z,1002.8
2022-07-29T03:44:37.591Z,1002.8
2022-07-29T03:46:18.612Z,1002.8
2022-07-29T03:49:19.641Z,1002.8
2022-07-29T03:52:20.667Z,1002.8
2022-07-29T03:55:21.679Z,1002.8
2022-07-29T03:58:22.694Z,1002.8
2022-07-29T04:04:24.754Z,1002.9
2022-07-29T04:07:25.765Z,1002.9
2022-07-29T04:13:27.824Z,1002.9
2022-07-29T04:14:47.835Z,1002.9
2022-07-29T04:19:29.870Z,1002.9
2022-07-29T04:22:30.880Z,1002.9
2022-07-29T04:28:32.940Z,1002.9
2022-07-29T04:31:33.962Z,1003
2022-07-29T04:34:34.989Z,1003
2022-07-29T04:40:37.018Z,1003
2022-07-29T04:44:58.093Z,1003
2022-07-29T04:46:39.064Z,1003
2022-07-29T04:49:40.088Z,1003
2022-07-29T04:52:41.115Z,1003
2022-07-29T04:55:42.134Z,1003
2022-07-29T04:58:43.163Z,1003
2022-07-29T05:07:46.228Z,1003
2022-07-29T05:10:47.245Z,1003
2022-07-29T05:13:48.263Z,1003.1
2022-07-29T05:15:08.329Z,1003
2022-07-29T05:16:49.301Z,1003
2022-07-29T05:19:50.329Z,1003
2022-07-29T05:34:55.443Z,1003
2022-07-29T05:37:56.454Z,1003
2022-07-29T05:40:57.479Z,1003
2022-07-29T05:43:58.494Z,1003
2022-07-29T05:45:18.576Z,1003
2022-07-29T05:46:59.517Z,1003
2022-07-29T05:50:00.541Z,1003
2022-07-29T05:53:01.579Z,1003
2022-07-29T05:59:03.616Z,1003
2022-07-29T06:05:05.662Z,1003
2022-07-29T06:08:06.683Z,1003
2022-07-29T06:11:07.711Z,1003
2022-07-29T06:15:28.817Z,1002.9
2022-07-29T06:17:09.742Z,1002.9
2022-07-29T06:20:10.772Z,1002.9
2022-07-29T06:23:11.791Z,1002.9
2022-07-29T06:26:12.828Z,1003
2022-07-29T06:29:13.847Z,1003
2022-07-29T06:32:14.861Z,1003
2022-07-29T06:35:15.891Z,1002.9
2022-07-29T06:38:16.919Z,1002.9
2022-07-29T06:41:17.929Z,1002.9
2022-07-29T06:44:18.952Z,1002.9
2022-07-29T06:45:39.069Z,1002.9
2022-07-29T06:47:19.972Z,1002.9
2022-07-29T06:50:21.010Z,1002.9
2022-07-29T06:53:22.019Z,1003
2022-07-29T06:56:23.058Z,1003
2022-07-29T06:59:24.077Z,1003
2022-07-29T07:02:25.092Z,1003
2022-07-29T07:05:26.123Z,1003
2022-07-29T07:08:27.133Z,1003
2022-07-29T07:11:28.168Z,1002.9
2022-07-29T07:14:29.174Z,1003
2022-07-29T07:15:49.313Z,1002.9
2022-07-29T07:17:30.200Z,1002.9
2022-07-29T07:20:31.232Z,1002.9
2022-07-29T07:23:32.246Z,1003
2022-07-29T07:26:33.265Z,1003
2022-07-29T07:29:34.306Z,1002.9
2022-07-29T07:32:35.311Z,1002.9
2022-07-29T07:38:37.361Z,1002.8
2022-07-29T07:41:38.382Z,1002.9
2022-07-29T07:44:39.415Z,1002.9
2022-07-29T07:45:59.544Z,1002.9
2022-07-29T07:47:40.439Z,1002.9
2022-07-29T07:50:41.457Z,1002.9
2022-07-29T07:53:42.483Z,1002.8
2022-07-29T07:56:43.505Z,1002.8
2022-07-29T07:59:44.523Z,1002.8
2022-07-29T08:02:45.557Z,1002.8
2022-07-29T08:05:46.575Z,1002.9
2022-07-29T08:08:47.597Z,1002.9
2022-07-29T08:11:48.625Z,1003
2022-07-29T08:14:49.640Z,1002.9
2022-07-29T08:16:09.810Z,1002.9
2022-07-29T08:17:50.658Z,1002.9
2022-07-29T08:20:51.696Z,1002.8
2022-07-29T08:26:53.739Z,1002.8
2022-07-29T08:29:54.747Z,1002.8
2022-07-29T08:32:55.787Z,1002.8
2022-07-29T08:35:56.805Z,1002.7
2022-07-29T08:41:58.847Z,1002.7
2022-07-29T08:44:59.880Z,1002.6
2022-07-29T08:46:20.046Z,1002.6
2022-07-29T08:48:00.899Z,1002.6
2022-07-29T08:54:02.943Z,1002.7
2022-07-29T08:57:03.962Z,1002.7
2022-07-29T09:03:06.015Z,1002.6
2022-07-29T09:06:07.026Z,1002.5
2022-07-29T09:09:08.043Z,1002.5
2022-07-29T09:12:09.071Z,1002.5
2022-07-29T09:15:10.098Z,1002.5
2022-07-29T09:16:30.302Z,1002.4
2022-07-29T09:18:11.110Z,1002.5
2022-07-29T09:21:12.144Z,1002.5
2022-07-29T09:24:13.159Z,1002.4
2022-07-29T09:27:14.192Z,1002.4
2022-07-29T09:30:15.208Z,1002.4
2022-07-29T09:36:17.256Z,1002.4
2022-07-29T09:45:20.322Z,1002.4
2022-07-29T09:46:40.545Z,1002.4
2022-07-29T09:48:21.354Z,1002.5
2022-07-29T09:51:22.378Z,1002.4
2022-07-29T09:54:23.386Z,1002.4
2022-07-29T09:57:24.415Z,1002.4
2022-07-29T10:00:25.437Z,1002.4
2022-07-29T10:03:26.467Z,1002.3
2022-07-29T10:06:27.488Z,1002.3
2022-07-29T10:12:29.531Z,1002.2
2022-07-29T10:15:30.561Z,1002.3
2022-07-29T10:16:50.787Z,1002.2
2022-07-29T10:18:31.577Z,1002.2
2022-07-29T10:21:32.602Z,1002.2
2022-07-29T10:24:33.620Z,1002.3
2022-07-29T10:27:34.652Z,1002.2
2022-07-29T10:30:35.668Z,1002.1
2022-07-29T10:33:36.695Z,1002.2
2022-07-29T10:36:37.704Z,1002.1
2022-07-29T10:39:38.747Z,1002.1
2022-07-29T10:42:39.752Z,1002.1
2022-07-29T10:45:40.775Z,1002
2022-07-29T10:47:01.033Z,1002
2022-07-29T10:48:41.801Z,1002
2022-07-29T10:51:42.829Z,1002
2022-07-29T10:54:43.849Z,1001.9
2022-07-29T10:57:44.864Z,1001.9
2022-07-29T11:00:45.905Z,1001.8
2022-07-29T11:03:46.910Z,1001.9
2022-07-29T11:06:47.938Z,1001.9
2022-07-29T11:12:49.982Z,1001.9
2022-07-29T11:15:51.018Z,1001.9
2022-07-29T11:17:11.281Z,1001.8
2022-07-29T11:18:52.042Z,1001.9
2022-07-29T11:21:53.057Z,1001.7
2022-07-29T11:24:54.089Z,1001.8
2022-07-29T11:27:55.114Z,1001.7
2022-07-29T11:30:56.119Z,1001.7
2022-07-29T11:33:57.145Z,1001.7
2022-07-29T11:36:58.174Z,1001.7
2022-07-29T11:43:00.209Z,1001.6
2022-07-29T11:46:01.238Z,1001.7
2022-07-29T11:47:21.538Z,1001.7
2022-07-29T11:49:02.263Z,1001.6
2022-07-29T11:52:03.285Z,1001.6
2022-07-29T11:55:04.311Z,1001.6
2022-07-29T12:01:06.375Z,1001.5
2022-07-29T12:04:07.370Z,1001.4
2022-07-29T12:07:08.407Z,1001.4
2022-07-29T12:13:10.447Z,1001.3
2022-07-29T12:16:11.468Z,1001.2
2022-07-29T12:17:31.770Z,1001.2
2022-07-29T12:19:12.500Z,1001.2
2022-07-29T12:22:13.528Z,1001.2
2022-07-29T12:25:14.534Z,1001.1
2022-07-29T12:31:16.590Z,1001.1
2022-07-29T12:34:17.612Z,1001
2022-07-29T12:37:18.626Z,1001
2022-07-29T12:40:19.653Z,1001
2022-07-29T12:43:20.671Z,1001.1
2022-07-29T12:46:21.708Z,1001
2022-07-29T12:47:42.022Z,1001
2022-07-29T12:49:22.728Z,1001
2022-07-29T12:52:23.759Z,1001.1
2022-07-29T12:55:24.771Z,1001
2022-07-29T12:58:25.803Z,1001
2022-07-29T13:01:26.819Z,1001
2022-07-29T13:04:27.839Z,1000.9
2022-07-29T13:07:28.870Z,1000.9
2022-07-29T13:10:29.889Z,1000.9
2022-07-29T13:13:30.910Z,1000.9
2022-07-29T13:16:31.945Z,1000.9
2022-07-29T13:17:52.280Z,1000.9
2022-07-29T13:19:32.950Z,1000.9
2022-07-29T13:22:33.980Z,1000.9
2022-07-29T13:25:35.015Z,1000.9
2022-07-29T13:28:36.019Z,1000.8
2022-07-29T13:31:37.047Z,1000.9
2022-07-29T13:34:38.071Z,1000.8
2022-07-29T13:37:39.085Z,1000.8
2022-07-29T13:40:40.126Z,1000.8
2022-07-29T13:43:41.140Z,1000.8
2022-07-29T13:46:42.164Z,1000.8
2022-07-29T13:48:02.516Z,1000.8
2022-07-29T13:49:43.187Z,1000.7
2022-07-29T13:52:44.219Z,1000.7
2022-07-29T13:55:45.238Z,1000.7
2022-07-29T13:58:46.251Z,1000.6
2022-07-29T14:01:47.289Z,1000.7
2022-07-29T14:07:49.323Z,1000.7
2022-07-29T14:10:50.361Z,1000.6
2022-07-29T14:13:51.381Z,1000.6
2022-07-29T14:18:12.773Z,1000.6
2022-07-29T14:19:53.421Z,1000.5
2022-07-29T14:22:54.441Z,1000.5
2022-07-29T14:31:57.517Z,1000.5
2022-07-29T14:37:59.559Z,1000.5
2022-07-29T14:41:00.586Z,1000.4
2022-07-29T14:44:01.610Z,1000.4
2022-07-29T14:47:02.625Z,1000.4
2022-07-29T14:48:23.027Z,1000.5
2022-07-29T14:50:03.659Z,1000.5
2022-07-29T14:53:04.672Z,1000.5
2022-07-29T14:56:05.703Z,1000.4
2022-07-29T14:59:06.711Z,1000.5
2022-07-29T15:02:07.744Z,1000.5
2022-07-29T15:05:08.772Z,1000.5
2022-07-29T15:08:09.780Z,1000.5
2022-07-29T15:11:10.820Z,1000.5
2022-07-29T15:14:11.844Z,1000.4
2022-07-29T15:17:12.859Z,1000.4
2022-07-29T15:18:33.273Z,1000.4
2022-07-29T15:20:13.873Z,1000.5
2022-07-29T15:23:14.907Z,1000.5
2022-07-29T15:26:15.936Z,1000.5
2022-07-29T15:29:16.955Z,1000.5
2022-07-29T15:32:17.962Z,1000.6
2022-07-29T15:35:18.998Z,1000.8
2022-07-29T15:38:20.023Z,1000.9
2022-07-29T15:41:21.034Z,1000.9
2022-07-29T15:44:22.055Z,1001
2022-07-29T15:47:23.087Z,1000.9
2022-07-29T15:48:43.518Z,1001.1
2022-07-29T15:50:24.119Z,1001
2022-07-29T15:53:25.139Z,1001
2022-07-29T15:56:26.158Z,1000.9
2022-07-29T15:59:27.172Z,1000.9
2022-07-29T16:02:28.205Z,1001
2022-07-29T16:05:29.215Z,1000.9
2022-07-29T16:08:30.251Z,1001
2022-07-29T16:11:31.263Z,1000.9
2022-07-29T16:14:32.282Z,1000.9
2022-07-29T16:17:33.302Z,1001
2022-07-29T16:18:53.761Z,1000.9
2022-07-29T16:20:34.335Z,1000.9
2022-07-29T16:23:35.366Z,1000.9
2022-07-29T16:26:36.383Z,1000.9
2022-07-29T16:32:38.432Z,1000.9
2022-07-29T16:35:39.450Z,1000.8
2022-07-29T16:38:40.476Z,1000.7
2022-07-29T16:41:41.481Z,1000.6
2022-07-29T16:44:42.497Z,1000.6
2022-07-29T16:47:43.517Z,1000.5
2022-07-29T16:49:03.986Z,1000.4
2022-07-29T16:50:44.553Z,1000.4
2022-07-29T16:53:45.573Z,1000.4
2022-07-29T16:56:46.582Z,1000.3
2022-07-29T16:59:47.620Z,1000.3
2022-07-29T17:02:48.631Z,1000.2
2022-07-29T17:05:49.660Z,1000.3
2022-07-29T17:08:50.674Z,1000.4
2022-07-29T17:11:51.713Z,1000.4
2022-07-29T17:14:52.717Z,1000.4
2022-07-29T17:17:53.750Z,1000.4
2022-07-29T17:19:14.220Z,1000.4
2022-07-29T17:20:54.770Z,1000.4
2022-07-29T17:23:55.801Z,1000.4
2022-07-29T17:26:56.816Z,1000.5
2022-07-29T17:29:57.848Z,1000.4
2022-07-29T17:32:58.865Z,1000.4
2022-07-29T17:35:59.883Z,1000.4
2022-07-29T17:39:00.896Z,1000.5
2022-07-29T17:42:01.932Z,1000.5
2022-07-29T17:45:02.956Z,1000.5
2022-07-29T17:48:03.968Z,1000.6
2022-07-29T17:49:24.479Z,1000.6
2022-07-29T17:54:06.017Z,1000.6
2022-07-29T17:57:07.038Z,1000.5
2022-07-29T18:00:08.059Z,1000.6
2022-07-29T18:03:09.081Z,1000.6
2022-07-29T18:06:10.119Z,1000.6
2022-07-29T18:09:11.130Z,1000.6
2022-07-29T18:12:12.147Z,1000.6
2022-07-29T18:15:13.186Z,1000.6
2022-07-29T18:18:14.190Z,1000.6
2022-07-29T18:19:34.715Z,1000.6
2022-07-29T18:21:15.226Z,1000.5
2022-07-29T18:24:16.252Z,1000.5
2022-07-29T18:27:17.262Z,1000.5
2022-07-29T18:30:18.288Z,1000.4
2022-07-29T18:33:19.312Z,1000.5
2022-07-29T18:39:21.367Z,1000.5
2022-07-29T18:42:22.384Z,1000.4
2022-07-29T18:45:23.397Z,1000.5
2022-07-29T18:48:24.430Z,1000.5
2022-07-29T18:49:44.960Z,1000.6
2022-07-29T18:51:25.439Z,1000.6
2022-07-29T18:54:26.468Z,1000.6
2022-07-29T18:57:27.485Z,1000.5
2022-07-29T19:00:28.522Z,1000.5
2022-07-29T19:06:30.556Z,1000.5
2022-07-29T19:09:31.586Z,1000.5
2022-07-29T19:12:32.608Z,1000.6
2022-07-29T19:15:33.626Z,1000.6
2022-07-29T19:18:34.640Z,1000.6
2022-07-29T19:19:55.199Z,1000.7
2022-07-29T19:24:36.698Z,1000.7
2022-07-29T19:27:37.720Z,1000.6
2022-07-29T19:30:38.741Z,1000.7
2022-07-29T19:33:39.758Z,1000.8
2022-07-29T19:36:40.785Z,1000.7
2022-07-29T19:39:41.796Z,1000.7
2022-07-29T19:42:42.824Z,1000.7
2022-07-29T19:45:43.846Z,1000.7
2022-07-29T19:48:44.877Z,1000.7
2022-07-29T19:50:05.453Z,1000.6
2022-07-29T19:51:45.907Z,1000.7
2022-07-29T19:54:46.916Z,1000.6
2022-07-29T19:57:47.937Z,1000.6
2022-07-29T20:00:48.969Z,1000.7
2022-07-29T20:03:49.979Z,1000.7
2022-07-29T20:06:51.000Z,1000.7
2022-07-29T20:09:52.036Z,1000.7
2022-07-29T20:12:53.045Z,1000.8
2022-07-29T20:15:54.086Z,1000.8
2022-07-29T20:18:55.108Z,1000.8
2022-07-29T20:20:15.679Z,1000.9
2022-07-29T20:21:56.127Z,1000.8
2022-07-29T20:24:57.146Z,1000.8
2022-07-29T20:27:58.165Z,1000.8
2022-07-29T20:30:59.199Z,1000.9
2022-07-29T20:34:00.219Z,1000.9
2022-07-29T20:37:01.245Z,1000.9
2022-07-29T20:40:02.248Z,1000.9
2022-07-29T20:43:03.274Z,1000.8
2022-07-29T20:46:04.300Z,1000.9
2022-07-29T20:49:05.323Z,1000.9
2022-07-29T20:50:25.936Z,1000.9
2022-07-29T20:52:06.341Z,1000.8
2022-07-29T20:55:07.363Z,1000.9
2022-07-29T20:58:08.395Z,1000.9
2022-07-29T21:01:09.408Z,1000.9
2022-07-29T21:04:09.602Z,1000.9
2022-07-29T21:05:48.213Z,1001
2022-07-29T21:07:18.723Z,1001
2022-07-29T21:08:49.250Z,1001.1
2022-07-29T21:10:19.755Z,1001.1
2022-07-29T21:14:51.287Z,1001.2
2022-07-29T21:16:21.796Z,1001.2
2022-07-29T21:17:52.324Z,1001.2
2022-07-29T21:19:22.834Z,1001.2
2022-07-29T21:20:39.960Z,1001.2
2022-07-29T21:21:57.081Z,1001.2
2022-07-29T21:23:27.587Z,1001.2
2022-07-29T21:24:58.109Z,1001.2
2022-07-29T21:26:28.610Z,1001.2
2022-07-29T21:27:59.129Z,1001.2
2022-07-29T21:29:29.641Z,1001.3
2022-07-29T21:31:00.161Z,1001.3
2022-07-29T21:32:30.735Z,1001.3
2022-07-29T21:34:09.376Z,1001.3
2022-07-29T21:35:39.884Z,1001.3
2022-07-29T21:36:57.000Z,1001.3
2022-07-29T21:38:14.140Z,1001.3
2022-07-29T21:39:44.649Z,1001.3
2022-07-29T21:41:15.163Z,1001.3
2022-07-29T21:42:45.666Z,1001.3
2022-07-29T21:44:16.185Z,1001.3
2022-07-29T21:45:46.696Z,1001.4
2022-07-29T21:47:17.211Z,1001.4
2022-07-29T21:48:47.714Z,1001.3
2022-07-29T21:50:18.232Z,1001.4
2022-07-29T21:51:48.749Z,1001.3
2022-07-29T21:53:05.877Z,1001.4
2022-07-29T21:54:22.730Z,1001.4
2022-07-29T21:56:01.344Z,1001.4
2022-07-29T21:57:31.857Z,1001.5
2022-07-29T21:59:02.367Z,1001.5
2022-07-29T22:00:32.869Z,1001.5
2022-07-29T22:02:03.385Z,1001.5
2022-07-29T22:03:33.904Z,1001.5
2022-07-29T22:05:04.425Z,1001.5
2022-07-29T22:06:34.937Z,1001.4
2022-07-29T22:08:05.432Z,1001.4
2022-07-29T22:09:22.570Z,1001.4
2022-07-29T22:10:39.699Z,1001.5
2022-07-29T22:12:10.203Z,1001.5
2022-07-29T22:13:40.710Z,1001.5
2022-07-29T22:15:11.236Z,1001.5
2022-07-29T22:16:41.749Z,1001.5
2022-07-29T22:21:13.289Z,1001.5
2022-07-29T22:22:43.796Z,1001.5
2022-07-29T22:24:14.394Z,1001.5
2022-07-29T22:25:31.516Z,1001.5
2022-07-29T22:26:48.201Z,1001.5
2022-07-29T22:28:18.725Z,1001.5
2022-07-29T22:31:19.735Z,1001.6
2022-07-29T22:32:50.251Z,1001.6
2022-07-29T22:35:51.285Z,1001.6
2022-07-29T22:37:21.778Z,1001.6
2022-07-29T22:40:22.814Z,1001.7
2022-07-29T22:41:39.936Z,1001.7
2022-07-29T22:42:57.064Z,1001.7
2022-07-29T22:45:58.085Z,1001.7
2022-07-29T22:47:28.597Z,1001.6
2022-07-29T22:48:59.196Z,1001.7
2022-07-29T22:50:37.810Z,1001.7
2022-07-29T22:52:08.323Z,1001.7
2022-07-29T22:55:09.346Z,1001.7
2022-07-29T22:56:39.869Z,1001.7
2022-07-29T22:57:57.001Z,1001.8
2022-07-29T22:59:14.123Z,1001.7
2022-07-29T23:00:44.625Z,1001.7
2022-07-29T23:02:15.152Z,1001.7
2022-07-29T23:03:45.644Z,1001.7
2022-07-29T23:05:16.166Z,1001.8
2022-07-29T23:06:46.672Z,1001.7
2022-07-29T23:08:17.198Z,1001.7
2022-07-29T23:09:47.694Z,1001.7
2022-07-29T23:11:18.210Z,1001.7
2022-07-29T23:12:48.722Z,1001.7
2022-07-29T23:14:05.859Z,1001.7
2022-07-29T23:15:22.987Z,1001.8
2022-07-29T23:16:53.483Z,1001.8
2022-07-29T23:19:54.510Z,1001.8
2022-07-29T23:21:25.033Z,1001.8
2022-07-29T23:24:26.052Z,1001.9
2022-07-29T23:25:56.564Z,1001.9
2022-07-29T23:27:27.069Z,1001.9
2022-07-29T23:28:57.584Z,1001.9
2022-07-29T23:30:14.705Z,1001.9
2022-07-29T23:33:01.914Z,1001.8
2022-07-29T23:34:32.439Z,1001.8
2022-07-29T23:36:02.943Z,1001.9
2022-07-29T23:39:03.974Z,1001.9
2022-07-29T23:42:04.990Z,1001.9
2022-07-29T23:43:35.498Z,1001.9
2022-07-29T23:45:06.020Z,1002
2022-07-29T23:46:23.148Z,1001.9
2022-07-29T23:47:40.261Z,1001.9
2022-07-29T23:49:10.777Z,1001.9
2022-07-29T23:50:41.299Z,1001.9
2022-07-29T23:52:11.808Z,1001.9
2022-07-29T23:53:42.316Z,1001.9
2022-07-29T23:55:12.818Z,1001.9
2022-07-29T23:56:43.336Z,1001.9
2022-07-29T23:58:13.858Z,1001.9
2022-07-29T23:59:44.367Z,1001.8
